»·PEaware :: SWA2806 KSAN-KLAS

SWA2806 :: KSAN-KLAS

FLIGHT INFORMATION

Flight Status: Arrived
Operator:
Southwest Airlines
More flights by this operator :: More flights under this callsign
Pilot: Kirk M. (10269)
Aircraft: BOEING 737-800
(B738)
More flights by this aircraft type
Origin: KSAN San Diego Intl-Lindbergh
United States
Destination: KLAS McCarran Intl
United States
More flights between these airports :: More routes between these airports
Route: +PADRZ2 CHKNN SEBBY YELAH MISEN KEPEC6
File this flight plan on PilotEdge
Remarks: PBN / A1B1C1D1S1S2 DOF / 171230 REG / N806SB OPR / SWA PER / C RMK / TCAS SIMBRIEF
Altitude:
(Current/Filed)
34,000ft
Speed:
(Current/Filed)
457kts
Departed: 30-Dec-17 04:04 PM
Arrived: 30-Dec-17 04:57 PM
Distance/Time
Traveled:
225nm/0:53
Distance/Time
To Go:
Arrived

Flight Plot

Page will automatically refresh every two minutes.

Flight plan parsing failed; only flown route is shown


Map Options




Map Legend


Flown Route
Filed Route
Departure Airport
Arrival Airport
Navaid (VOR, NDB)
Fix

Horizontal Profiles

Position Reports

Time Latitude Longitude Heading Altitude Ground
Speed
30-Dec-17 15:41 32.731854 -117.195856 247 19ft 0kts
30-Dec-17 15:42 32.731854 -117.195856 247 19ft 0kts
30-Dec-17 15:43 32.731854 -117.195856 247 19ft 0kts
30-Dec-17 15:44 32.731854 -117.195856 247 19ft 0kts
30-Dec-17 15:45 32.731854 -117.195856 247 19ft 0kts
30-Dec-17 15:46 32.731854 -117.195856 247 19ft 0kts
30-Dec-17 15:47 32.731854 -117.195856 247 19ft 0kts
30-Dec-17 15:48 32.731854 -117.195856 247 19ft 0kts
30-Dec-17 15:49 32.731854 -117.195856 247 19ft 0kts
30-Dec-17 15:50 32.731854 -117.195856 247 19ft 0kts
30-Dec-17 15:51 32.731854 -117.195856 247 19ft 0kts
30-Dec-17 15:52 32.731854 -117.195856 247 19ft 0kts
30-Dec-17 15:53 32.731854 -117.195856 247 19ft 0kts
30-Dec-17 15:54 32.731854 -117.195856 247 19ft 0kts
30-Dec-17 15:55 32.731854 -117.195856 247 19ft 0kts
30-Dec-17 15:56 32.731854 -117.195856 247 19ft 0kts
30-Dec-17 15:57 32.731854 -117.195856 247 19ft 0kts
30-Dec-17 15:58 32.731854 -117.195856 247 19ft 0kts
30-Dec-17 15:59 32.731962 -117.195627 252 19ft 2kts
30-Dec-17 16:00 32.731779 -117.195065 346 20ft 2kts
30-Dec-17 16:01 32.731437 -117.195127 14 21ft 0kts
30-Dec-17 16:02 32.731437 -117.195127 14 21ft 0kts
30-Dec-17 16:03 32.731437 -117.195127 14 21ft 0kts
30-Dec-17 16:04 32.732416 -117.194709 27 20ft 6kts
30-Dec-17 16:05 32.732967 -117.191474 110 21ft 20kts
30-Dec-17 16:06 32.731483 -117.185173 108 20ft 19kts
30-Dec-17 16:07 32.729987 -117.179233 103 19ft 15kts
30-Dec-17 16:08 32.729780 -117.175884 36 25ft 4kts
30-Dec-17 16:09 32.730349 -117.176482 285 26ft 20kts
30-Dec-17 16:10 32.741168 -117.217934 291 1773ft 177kts
30-Dec-17 16:11 32.773171 -117.275916 305 4741ft 226kts
30-Dec-17 16:12 32.816216 -117.343932 308 8005ft 280kts
30-Dec-17 16:13 32.864752 -117.419254 306 11097ft 316kts
30-Dec-17 16:14 32.919241 -117.504037 305 14623ft 333kts
30-Dec-17 16:15 32.976023 -117.592606 305 15119ft 345kts
30-Dec-17 16:16 33.034522 -117.683995 305 19133ft 362kts
30-Dec-17 16:17 33.105305 -117.772577 317 22678ft 387kts
30-Dec-17 16:18 33.188218 -117.856233 316 25835ft 403kts
30-Dec-17 16:19 33.289785 -117.901318 0 29345ft 411kts
30-Dec-17 16:20 33.399920 -117.885265 3 32628ft 401kts
30-Dec-17 16:21 33.498177 -117.869857 2 34070ft 390kts
30-Dec-17 16:22 33.604735 -117.853226 2 34076ft 391kts
30-Dec-17 16:23 33.711439 -117.836524 2 34076ft 390kts
30-Dec-17 16:24 33.817595 -117.819869 2 34077ft 391kts
30-Dec-17 16:25 33.922956 -117.803296 2 34125ft 391kts
30-Dec-17 16:26 34.029277 -117.786527 2 34086ft 390kts
30-Dec-17 16:27 34.128203 -117.736294 39 34097ft 415kts
30-Dec-17 16:28 34.198372 -117.620238 50 34088ft 451kts
30-Dec-17 16:29 34.277020 -117.499396 48 34111ft 478kts
30-Dec-17 16:30 34.359994 -117.375839 47 34105ft 478kts
30-Dec-17 16:31 34.429139 -117.273189 48 34101ft 478kts
30-Dec-17 16:32 34.526341 -117.129065 48 34101ft 478kts
30-Dec-17 16:33 34.596113 -117.025742 48 34102ft 478kts
30-Dec-17 16:34 34.678951 -116.903221 48 34083ft 463kts
30-Dec-17 16:35 34.770029 -116.768783 48 32227ft 446kts
30-Dec-17 16:36 34.849255 -116.652082 48 29966ft 454kts
30-Dec-17 16:37 34.926369 -116.573720 36 28168ft 420kts
30-Dec-17 16:38 35.031698 -116.472399 37 25743ft 423kts
30-Dec-17 16:39 35.106361 -116.399693 40 24106ft 411kts
30-Dec-17 16:40 35.183576 -116.302098 47 22547ft 401kts
30-Dec-17 16:41 35.258754 -116.206463 46 21075ft 392kts
30-Dec-17 16:42 35.332846 -116.112606 46 19663ft 382kts
30-Dec-17 16:43 35.405193 -116.021099 46 18272ft 373kts
30-Dec-17 16:44 35.475766 -115.931914 45 16813ft 362kts
30-Dec-17 16:45 35.544896 -115.844644 45 15492ft 355kts
30-Dec-17 16:46 35.612647 -115.759193 45 14186ft 342kts
30-Dec-17 16:47 35.679878 -115.674468 45 12989ft 331kts
30-Dec-17 16:48 35.739936 -115.597733 43 13002ft 312kts
30-Dec-17 16:49 35.820587 -115.571338 0 12994ft 309kts
30-Dec-17 16:50 35.905496 -115.567142 0 12976ft 309kts
30-Dec-17 16:51 35.980416 -115.526301 55 12577ft 314kts
30-Dec-17 16:52 36.014483 -115.427529 68 11504ft 325kts
30-Dec-17 16:53 36.030023 -115.323492 98 10357ft 301kts
30-Dec-17 16:54 36.020714 -115.226964 96 9221ft 271kts
30-Dec-17 16:55 36.014103 -115.136412 95 8382ft 258kts
30-Dec-17 16:56 36.008757 -115.055498 94 7945ft 207kts
30-Dec-17 16:57 36.004639 -114.986774 94 7968ft 208kts
30-Dec-17 16:58 36.033010 -114.947690 350 7298ft 172kts
30-Dec-17 16:59 36.075348 -114.967307 293 5714ft 176kts
30-Dec-17 17:00 36.074357 -115.026423 275 3982ft 164kts
30-Dec-17 17:01 36.073729 -115.079966 271 2879ft 147kts
30-Dec-17 17:02 36.073610 -115.127811 270 2147ft 144kts
30-Dec-17 17:03 36.074191 -115.149404 299 2119ft 14kts
30-Dec-17 17:04 36.078013 -115.152887 332 2119ft 15kts
30-Dec-17 17:05 36.078606 -115.148231 90 2119ft 12kts
30-Dec-17 17:06 36.079707 -115.147510 55 2119ft 5kts
30-Dec-17 17:07 36.079919 -115.147119 56 2119ft 0kts
30-Dec-17 17:08 36.079919 -115.147119 56 2119ft 0kts

Navigation Log

Ident Type
Flight plan parsing failed, navigation log unavailable